sensor_id;sensor_type;location;lat;lon;timestamp;pressure;altitude;pressure_sealevel;temperature;humidity
7178;BME280;3630;42.146;24.756;2023-03-15T00:02:14;98649.53;;;7.53;53.83
7178;BME280;3630;42.146;24.756;2023-03-15T00:04:42;98652.94;;;7.54;54.55
7178;BME280;3630;42.146;24.756;2023-03-15T00:07:09;98646.75;;;7.38;55.34
7178;BME280;3630;42.146;24.756;2023-03-15T00:09:35;98646.72;;;7.35;55.31
7178;BME280;3630;42.146;24.756;2023-03-15T00:12:03;98641.41;;;7.23;56.33
7178;BME280;3630;42.146;24.756;2023-03-15T00:14:29;98642.31;;;7.28;56.65
7178;BME280;3630;42.146;24.756;2023-03-15T00:16:56;98641.44;;;7.26;56.70
7178;BME280;3630;42.146;24.756;2023-03-15T00:19:23;98644.88;;;7.28;57.59
7178;BME280;3630;42.146;24.756;2023-03-15T00:21:51;98638.69;;;7.12;58.27
7178;BME280;3630;42.146;24.756;2023-03-15T00:24:18;98639.50;;;7.10;58.79
7178;BME280;3630;42.146;24.756;2023-03-15T00:26:45;98630.81;;;7.00;58.79
7178;BME280;3630;42.146;24.756;2023-03-15T00:29:11;98634.34;;;7.07;59.03
7178;BME280;3630;42.146;24.756;2023-03-15T00:31:38;98629.25;;;7.08;58.70
7178;BME280;3630;42.146;24.756;2023-03-15T00:34:05;98631.81;;;7.08;58.80
7178;BME280;3630;42.146;24.756;2023-03-15T00:36:32;98623.19;;;7.02;59.75
7178;BME280;3630;42.146;24.756;2023-03-15T00:39:00;98629.75;;;6.88;60.22
7178;BME280;3630;42.146;24.756;2023-03-15T00:41:27;98626.03;;;6.69;61.41
7178;BME280;3630;42.146;24.756;2023-03-15T00:43:54;98613.97;;;6.61;62.14
7178;BME280;3630;42.146;24.756;2023-03-15T00:46:21;98615.78;;;6.68;62.33
7178;BME280;3630;42.146;24.756;2023-03-15T00:48:48;98595.88;;;6.47;62.89
7178;BME280;3630;42.146;24.756;2023-03-15T00:51:17;98570.03;;;6.29;63.26
7178;BME280;3630;42.146;24.756;2023-03-15T00:53:45;98615.53;;;6.52;64.24
7178;BME280;3630;42.146;24.756;2023-03-15T00:56:16;98622.41;;;6.57;64.10
7178;BME280;3630;42.146;24.756;2023-03-15T00:58:43;98614.72;;;6.55;63.66
7178;BME280;3630;42.146;24.756;2023-03-15T01:01:12;98611.16;;;6.45;64.04
7178;BME280;3630;42.146;24.756;2023-03-15T01:03:40;98559.63;;;6.18;63.68
7178;BME280;3630;42.146;24.756;2023-03-15T01:06:08;98603.34;;;6.38;63.71
7178;BME280;3630;42.146;24.756;2023-03-15T01:08:36;98596.50;;;6.34;63.20
7178;BME280;3630;42.146;24.756;2023-03-15T01:11:03;98595.75;;;6.41;63.91
7178;BME280;3630;42.146;24.756;2023-03-15T01:13:32;98580.06;;;6.20;64.91
7178;BME280;3630;42.146;24.756;2023-03-15T01:15:59;98589.47;;;6.22;65.13
7178;BME280;3630;42.146;24.756;2023-03-15T01:18:26;98583.44;;;6.19;65.79
7178;BME280;3630;42.146;24.756;2023-03-15T01:20:53;98592.94;;;6.26;65.35
7178;BME280;3630;42.146;24.756;2023-03-15T01:23:20;98592.19;;;6.31;65.55
7178;BME280;3630;42.146;24.756;2023-03-15T01:25:47;98597.38;;;6.36;65.85
7178;BME280;3630;42.146;24.756;2023-03-15T01:28:14;98593.91;;;6.32;66.75
7178;BME280;3630;42.146;24.756;2023-03-15T01:30:49;98598.19;;;6.35;67.18
7178;BME280;3630;42.146;24.756;2023-03-15T01:33:16;98585.66;;;6.45;65.98
7178;BME280;3630;42.146;24.756;2023-03-15T01:35:42;98580.44;;;6.39;66.18
7178;BME280;3630;42.146;24.756;2023-03-15T01:38:09;98577.03;;;6.40;66.96
7178;BME280;3630;42.146;24.756;2023-03-15T01:40:40;98569.31;;;6.37;67.68
7178;BME280;3630;42.146;24.756;2023-03-15T01:43:15;98481.34;;;5.69;67.16
7178;BME280;3630;42.146;24.756;2023-03-15T01:46:06;98577.59;;;6.24;67.25
7178;BME280;3630;42.146;24.756;2023-03-15T01:48:36;98562.91;;;6.13;67.88
7178;BME280;3630;42.146;24.756;2023-03-15T01:51:08;98570.66;;;6.17;68.68
7178;BME280;3630;42.146;24.756;2023-03-15T01:53:38;98567.19;;;6.14;68.56
7178;BME280;3630;42.146;24.756;2023-03-15T01:56:07;98583.25;;;6.08;68.86
7178;BME280;3630;42.146;24.756;2023-03-15T01:58:35;98566.94;;;6.02;69.49
7178;BME280;3630;42.146;24.756;2023-03-15T02:01:06;98579.81;;;6.06;69.26
7178;BME280;3630;42.146;24.756;2023-03-15T02:03:36;98584.78;;;5.99;69.41
7178;BME280;3630;42.146;24.756;2023-03-15T02:06:15;98576.31;;;6.01;69.77
7178;BME280;3630;42.146;24.756;2023-03-15T02:08:45;98570.38;;;6.02;70.26
7178;BME280;3630;42.146;24.756;2023-03-15T02:11:16;98566.88;;;5.96;70.01
7178;BME280;3630;42.146;24.756;2023-03-15T02:13:47;98567.69;;;5.96;71.35
7178;BME280;3630;42.146;24.756;2023-03-15T02:16:16;98569.50;;;6.00;70.13
7178;BME280;3630;42.146;24.756;2023-03-15T02:18:43;98560.97;;;5.98;70.46
7178;BME280;3630;42.146;24.756;2023-03-15T02:21:22;98563.63;;;6.04;70.37
7178;BME280;3630;42.146;24.756;2023-03-15T02:23:58;98551.72;;;6.05;70.39
7178;BME280;3630;42.146;24.756;2023-03-15T02:26:32;98548.28;;;6.03;69.75
7178;BME280;3630;42.146;24.756;2023-03-15T02:29:02;98561.16;;;6.10;70.46
7178;BME280;3630;42.146;24.756;2023-03-15T02:31:29;98555.31;;;6.16;69.89
7178;BME280;3630;42.146;24.756;2023-03-15T02:34:03;98546.75;;;6.11;70.19
7178;BME280;3630;42.146;24.756;2023-03-15T02:36:31;98556.19;;;6.15;70.72
7178;BME280;3630;42.146;24.756;2023-03-15T02:38:58;98556.97;;;6.12;70.71
7178;BME280;3630;42.146;24.756;2023-03-15T02:41:28;98552.69;;;6.11;70.41
7178;BME280;3630;42.146;24.756;2023-03-15T02:43:59;98520.00;;;5.89;70.16
7178;BME280;3630;42.146;24.756;2023-03-15T02:46:29;98551.03;;;6.12;70.89
7178;BME280;3630;42.146;24.756;2023-03-15T02:48:56;98552.78;;;6.16;70.74
7178;BME280;3630;42.146;24.756;2023-03-15T02:51:27;98538.97;;;6.05;71.31
7178;BME280;3630;42.146;24.756;2023-03-15T02:53:53;98548.47;;;6.13;70.39
7178;BME280;3630;42.146;24.756;2023-03-15T02:56:20;98550.22;;;6.16;70.87
7178;BME280;3630;42.146;24.756;2023-03-15T02:58:47;98538.22;;;6.10;70.70
7178;BME280;3630;42.146;24.756;2023-03-15T03:01:15;98546.56;;;6.02;71.28
7178;BME280;3630;42.146;24.756;2023-03-15T03:03:44;98477.84;;;5.64;71.16
7178;BME280;3630;42.146;24.756;2023-03-15T03:06:13;98536.28;;;5.97;72.49
7178;BME280;3630;42.146;24.756;2023-03-15T03:08:40;98525.88;;;5.85;72.44
7178;BME280;3630;42.146;24.756;2023-03-15T03:11:12;98527.47;;;5.81;73.32
7178;BME280;3630;42.146;24.756;2023-03-15T03:13:39;98529.22;;;5.84;72.89
7178;BME280;3630;42.146;24.756;2023-03-15T03:16:09;98525.91;;;5.88;72.56
7178;BME280;3630;42.146;24.756;2023-03-15T03:18:36;98531.91;;;5.90;73.09
7178;BME280;3630;42.146;24.756;2023-03-15T03:21:06;98531.00;;;5.86;73.38
7178;BME280;3630;42.146;24.756;2023-03-15T03:23:34;98525.13;;;5.90;72.88
7178;BME280;3630;42.146;24.756;2023-03-15T03:26:02;98523.66;;;6.03;72.86
7178;BME280;3630;42.146;24.756;2023-03-15T03:28:30;98519.31;;;5.98;73.04
7178;BME280;3630;42.146;24.756;2023-03-15T03:30:57;98527.63;;;5.89;73.97
7178;BME280;3630;42.146;24.756;2023-03-15T03:33:24;98528.34;;;5.82;73.97
7178;BME280;3630;42.146;24.756;2023-03-15T03:35:51;98528.34;;;5.82;73.93
7178;BME280;3630;42.146;24.756;2023-03-15T03:38:20;98517.06;;;5.71;74.03
7178;BME280;3630;42.146;24.756;2023-03-15T03:40:47;98522.00;;;5.63;75.44
7178;BME280;3630;42.146;24.756;2023-03-15T03:43:14;98525.25;;;5.56;75.79
7178;BME280;3630;42.146;24.756;2023-03-15T03:45:41;98523.53;;;5.55;76.03
7178;BME280;3630;42.146;24.756;2023-03-15T03:48:07;98519.22;;;5.53;76.18
7178;BME280;3630;42.146;24.756;2023-03-15T03:50:34;98512.50;;;5.55;76.20
7178;BME280;3630;42.146;24.756;2023-03-15T03:53:01;98510.66;;;5.48;76.47
7178;BME280;3630;42.146;24.756;2023-03-15T03:55:29;98507.88;;;5.37;76.64
7178;BME280;3630;42.146;24.756;2023-03-15T03:57:58;98516.47;;;5.42;76.66
7178;BME280;3630;42.146;24.756;2023-03-15T04:00:25;98523.44;;;5.49;76.79
7178;BME280;3630;42.146;24.756;2023-03-15T04:02:52;98521.63;;;5.44;77.23
7178;BME280;3630;42.146;24.756;2023-03-15T04:05:19;98523.50;;;5.54;77.03
7178;BME280;3630;42.146;24.756;2023-03-15T04:07:46;98529.53;;;5.57;76.37
7178;BME280;3630;42.146;24.756;2023-03-15T04:10:13;98525.31;;;5.59;75.61
7178;BME280;3630;42.146;24.756;2023-03-15T04:12:42;98510.69;;;5.49;76.44
7178;BME280;3630;42.146;24.756;2023-03-15T04:15:09;98511.56;;;5.51;76.33
7178;BME280;3630;42.146;24.756;2023-03-15T04:17:37;98508.91;;;5.47;76.23
7178;BME280;3630;42.146;24.756;2023-03-15T04:20:04;98520.97;;;5.55;76.59
7178;BME280;3630;42.146;24.756;2023-03-15T04:22:33;98518.47;;;5.57;77.13
7178;BME280;3630;42.146;24.756;2023-03-15T04:25:00;98514.91;;;5.49;76.83
7178;BME280;3630;42.146;24.756;2023-03-15T04:27:27;98493.47;;;5.39;77.33
7178;BME280;3630;42.146;24.756;2023-03-15T04:29:55;98496.63;;;5.27;77.57
7178;BME280;3630;42.146;24.756;2023-03-15T04:32:22;98492.44;;;5.29;78.60
7178;BME280;3630;42.146;24.756;2023-03-15T04:34:49;98500.03;;;5.26;78.22
7178;BME280;3630;42.146;24.756;2023-03-15T04:37:16;98497.50;;;5.28;78.39
7178;BME280;3630;42.146;24.756;2023-03-15T04:39:43;98512.91;;;5.32;77.93
7178;BME280;3630;42.146;24.756;2023-03-15T04:42:10;98515.50;;;5.35;78.35
7178;BME280;3630;42.146;24.756;2023-03-15T04:44:37;98515.53;;;5.38;77.76
7178;BME280;3630;42.146;24.756;2023-03-15T04:47:05;98508.69;;;5.36;77.70
7178;BME280;3630;42.146;24.756;2023-03-15T04:49:32;98514.44;;;5.27;78.11
7178;BME280;3630;42.146;24.756;2023-03-15T04:51:59;98490.22;;;5.06;78.68
7178;BME280;3630;42.146;24.756;2023-03-15T04:54:26;98512.47;;;5.14;78.39
7178;BME280;3630;42.146;24.756;2023-03-15T04:56:53;98514.06;;;5.09;78.85
7178;BME280;3630;42.146;24.756;2023-03-15T04:59:20;98510.53;;;5.03;79.08
7178;BME280;3630;42.146;24.756;2023-03-15T05:01:47;98519.69;;;4.95;79.65
7178;BME280;3630;42.146;24.756;2023-03-15T05:04:15;98520.66;;;5.00;79.13
7178;BME280;3630;42.146;24.756;2023-03-15T05:06:42;98519.75;;;4.98;79.03
7178;BME280;3630;42.146;24.756;2023-03-15T05:09:09;98508.34;;;4.81;80.26
7178;BME280;3630;42.146;24.756;2023-03-15T05:11:42;98513.47;;;4.82;80.74
7178;BME280;3630;42.146;24.756;2023-03-15T05:14:09;98514.41;;;4.87;80.28
7178;BME280;3630;42.146;24.756;2023-03-15T05:16:35;98516.22;;;4.91;80.22
7178;BME280;3630;42.146;24.756;2023-03-15T05:19:02;98528.16;;;4.94;80.60
7178;BME280;3630;42.146;24.756;2023-03-15T05:21:30;98523.13;;;4.97;80.60
7178;BME280;3630;42.146;24.756;2023-03-15T05:23:57;98526.28;;;4.87;80.23
7178;BME280;3630;42.146;24.756;2023-03-15T05:26:24;98532.31;;;4.90;79.78
7178;BME280;3630;42.146;24.756;2023-03-15T05:28:51;98527.19;;;4.89;80.47
7178;BME280;3630;42.146;24.756;2023-03-15T05:31:18;98526.34;;;4.90;80.51
7178;BME280;3630;42.146;24.756;2023-03-15T05:33:45;98529.28;;;4.69;80.55
7178;BME280;3630;42.146;24.756;2023-03-15T05:36:12;98521.81;;;4.76;80.91
7178;BME280;3630;42.146;24.756;2023-03-15T05:38:41;98519.72;;;4.60;81.23
7178;BME280;3630;42.146;24.756;2023-03-15T05:41:08;98519.88;;;4.66;81.62
7178;BME280;3630;42.146;24.756;2023-03-15T05:43:34;98517.44;;;4.71;81.17
7178;BME280;3630;42.146;24.756;2023-03-15T05:46:01;98518.41;;;4.76;80.64
7178;BME280;3630;42.146;24.756;2023-03-15T05:48:28;98513.25;;;4.73;81.25
7178;BME280;3630;42.146;24.756;2023-03-15T05:50:56;98511.53;;;4.72;80.89
7178;BME280;3630;42.146;24.756;2023-03-15T05:53:23;98507.03;;;4.60;81.40
7178;BME280;3630;42.146;24.756;2023-03-15T05:55:51;98509.78;;;4.69;80.90
7178;BME280;3630;42.146;24.756;2023-03-15T05:58:18;98512.97;;;4.61;81.39
7178;BME280;3630;42.146;24.756;2023-03-15T06:00:45;98503.78;;;4.67;81.64
7178;BME280;3630;42.146;24.756;2023-03-15T06:03:13;98506.22;;;4.61;80.96
7178;BME280;3630;42.146;24.756;2023-03-15T06:05:41;98518.88;;;4.60;81.55
7178;BME280;3630;42.146;24.756;2023-03-15T06:08:08;98515.78;;;4.73;81.53
7178;BME280;3630;42.146;24.756;2023-03-15T06:10:35;98521.00;;;4.78;81.38
7178;BME280;3630;42.146;24.756;2023-03-15T06:13:03;98520.47;;;4.92;80.53
7178;BME280;3630;42.146;24.756;2023-03-15T06:15:31;98523.47;;;5.12;80.46
7178;BME280;3630;42.146;24.756;2023-03-15T06:17:58;98512.03;;;5.32;78.92
7178;BME280;3630;42.146;24.756;2023-03-15T06:20:25;98504.88;;;5.55;78.46
7178;BME280;3630;42.146;24.756;2023-03-15T06:22:51;98513.72;;;5.75;77.40
7178;BME280;3630;42.146;24.756;2023-03-15T06:25:18;98517.38;;;5.86;76.00
7178;BME280;3630;42.146;24.756;2023-03-15T06:27:45;98513.72;;;5.75;75.57
7178;BME280;3630;42.146;24.756;2023-03-15T06:30:14;98502.94;;;5.85;75.52
7178;BME280;3630;42.146;24.756;2023-03-15T06:32:41;98509.16;;;6.01;74.69
7178;BME280;3630;42.146;24.756;2023-03-15T06:35:08;98495.69;;;6.06;75.07
7178;BME280;3630;42.146;24.756;2023-03-15T06:37:35;98504.13;;;6.04;74.16
7178;BME280;3630;42.146;24.756;2023-03-15T06:40:03;98490.38;;;5.96;74.03
7178;BME280;3630;42.146;24.756;2023-03-15T06:42:31;98512.97;;;6.22;73.24
7178;BME280;3630;42.146;24.756;2023-03-15T06:44:58;98513.25;;;6.39;73.50
7178;BME280;3630;42.146;24.756;2023-03-15T06:47:27;98509.13;;;6.45;72.57
7178;BME280;3630;42.146;24.756;2023-03-15T06:49:53;98513.53;;;6.57;71.48
7178;BME280;3630;42.146;24.756;2023-03-15T06:52:20;98513.53;;;6.57;71.42
7178;BME280;3630;42.146;24.756;2023-03-15T06:54:47;98517.94;;;6.66;71.45
7178;BME280;3630;42.146;24.756;2023-03-15T06:57:14;98514.66;;;6.73;71.45
7178;BME280;3630;42.146;24.756;2023-03-15T06:59:41;98510.69;;;6.91;71.00
7178;BME280;3630;42.146;24.756;2023-03-15T07:02:13;98517.66;;;7.03;70.13
7178;BME280;3630;42.146;24.756;2023-03-15T07:04:41;98511.88;;;7.16;70.13
7178;BME280;3630;42.146;24.756;2023-03-15T07:07:09;98512.00;;;7.25;69.11
7178;BME280;3630;42.146;24.756;2023-03-15T07:09:36;98461.59;;;7.12;68.59
7178;BME280;3630;42.146;24.756;2023-03-15T07:12:03;98501.00;;;7.31;68.02
7178;BME280;3630;42.146;24.756;2023-03-15T07:14:30;98502.78;;;7.36;69.03
7178;BME280;3630;42.146;24.756;2023-03-15T07:16:58;98509.41;;;7.22;68.84
7178;BME280;3630;42.146;24.756;2023-03-15T07:19:25;98497.56;;;7.29;68.92
7178;BME280;3630;42.146;24.756;2023-03-15T07:21:53;98503.81;;;7.50;67.92
7178;BME280;3630;42.146;24.756;2023-03-15T07:24:20;98498.78;;;7.56;68.00
7178;BME280;3630;42.146;24.756;2023-03-15T07:26:47;98500.69;;;7.74;66.95
7178;BME280;3630;42.146;24.756;2023-03-15T07:29:14;98492.44;;;7.98;66.23
7178;BME280;3630;42.146;24.756;2023-03-15T07:31:42;98499.44;;;8.17;65.51
7178;BME280;3630;42.146;24.756;2023-03-15T07:34:09;98491.75;;;8.17;64.90
7178;BME280;3630;42.146;24.756;2023-03-15T07:36:36;98490.69;;;7.95;64.49
7178;BME280;3630;42.146;24.756;2023-03-15T07:39:04;98489.41;;;7.58;66.10
7178;BME280;3630;42.146;24.756;2023-03-15T07:41:31;98493.59;;;7.49;67.65
7178;BME280;3630;42.146;24.756;2023-03-15T07:43:58;98490.00;;;7.36;68.15
7178;BME280;3630;42.146;24.756;2023-03-15T07:46:25;98491.75;;;7.39;68.57
7178;BME280;3630;42.146;24.756;2023-03-15T07:48:51;98491.75;;;7.40;69.19
7178;BME280;3630;42.146;24.756;2023-03-15T07:51:18;98486.94;;;7.64;68.26
7178;BME280;3630;42.146;24.756;2023-03-15T07:53:45;98486.88;;;7.57;68.09
7178;BME280;3630;42.146;24.756;2023-03-15T07:56:13;98478.09;;;7.35;69.49
7178;BME280;3630;42.146;24.756;2023-03-15T07:58:40;98474.75;;;7.41;69.71
7178;BME280;3630;42.146;24.756;2023-03-15T08:01:07;98475.72;;;7.53;69.93
7178;BME280;3630;42.146;24.756;2023-03-15T08:03:34;98489.47;;;7.61;69.38
7178;BME280;3630;42.146;24.756;2023-03-15T08:06:01;98470.22;;;7.95;68.30
7178;BME280;3630;42.146;24.756;2023-03-15T08:08:28;98473.78;;;8.11;67.05
7178;BME280;3630;42.146;24.756;2023-03-15T08:10:54;98472.03;;;8.04;66.46
7178;BME280;3630;42.146;24.756;2023-03-15T08:13:25;98455.06;;;8.13;66.81
7178;BME280;3630;42.146;24.756;2023-03-15T08:15:51;98456.78;;;8.13;66.24
7178;BME280;3630;42.146;24.756;2023-03-15T08:18:18;98440.53;;;8.11;66.20
7178;BME280;3630;42.146;24.756;2023-03-15T08:20:45;98425.88;;;7.92;67.04
7178;BME280;3630;42.146;24.756;2023-03-15T08:23:12;98424.41;;;8.18;66.75
7178;BME280;3630;42.146;24.756;2023-03-15T08:25:41;98383.44;;;8.16;66.03
7178;BME280;3630;42.146;24.756;2023-03-15T08:28:08;98422.78;;;8.26;64.08
7178;BME280;3630;42.146;24.756;2023-03-15T08:30:36;98421.25;;;8.48;64.00
7178;BME280;3630;42.146;24.756;2023-03-15T08:33:03;98415.44;;;8.70;62.98
7178;BME280;3630;42.146;24.756;2023-03-15T08:35:30;98414.66;;;8.78;62.89
7178;BME280;3630;42.146;24.756;2023-03-15T08:37:58;98403.63;;;8.96;62.11
7178;BME280;3630;42.146;24.756;2023-03-15T08:40:28;98400.28;;;9.06;60.68
7178;BME280;3630;42.146;24.756;2023-03-15T08:42:55;98402.00;;;9.15;58.72
7178;BME280;3630;42.146;24.756;2023-03-15T08:45:23;98412.28;;;9.24;59.35
7178;BME280;3630;42.146;24.756;2023-03-15T08:47:54;98411.41;;;9.16;59.27
7178;BME280;3630;42.146;24.756;2023-03-15T08:50:22;98403.63;;;8.95;59.67
7178;BME280;3630;42.146;24.756;2023-03-15T08:52:49;98410.16;;;8.47;60.89
7178;BME280;3630;42.146;24.756;2023-03-15T08:55:16;98421.22;;;8.40;61.26
7178;BME280;3630;42.146;24.756;2023-03-15T08:57:43;98421.44;;;8.70;61.02
7178;BME280;3630;42.146;24.756;2023-03-15T09:00:11;98411.31;;;8.92;61.11
7178;BME280;3630;42.146;24.756;2023-03-15T09:02:44;98418.16;;;8.99;60.34
7178;BME280;3630;42.146;24.756;2023-03-15T09:05:14;98397.75;;;9.17;59.96
7178;BME280;3630;42.146;24.756;2023-03-15T09:07:42;98404.72;;;9.59;58.83
7178;BME280;3630;42.146;24.756;2023-03-15T09:10:10;98400.53;;;9.94;57.72
7178;BME280;3630;42.146;24.756;2023-03-15T09:12:39;98392.00;;;10.15;56.43
7178;BME280;3630;42.146;24.756;2023-03-15T09:15:07;98386.88;;;10.37;55.65
7178;BME280;3630;42.146;24.756;2023-03-15T09:17:34;98382.56;;;10.53;54.51
7178;BME280;3630;42.146;24.756;2023-03-15T09:20:02;98370.59;;;10.49;54.12
7178;BME280;3630;42.146;24.756;2023-03-15T09:22:33;98372.34;;;10.41;52.95
7178;BME280;3630;42.146;24.756;2023-03-15T09:25:00;98380.88;;;10.29;52.75
7178;BME280;3630;42.146;24.756;2023-03-15T09:27:28;98367.19;;;10.39;53.41
7178;BME280;3630;42.146;24.756;2023-03-15T09:29:55;98361.16;;;10.55;53.35
7178;BME280;3630;42.146;24.756;2023-03-15T09:32:22;98372.25;;;10.70;52.88
7178;BME280;3630;42.146;24.756;2023-03-15T09:34:49;98370.53;;;10.79;53.18
7178;BME280;3630;42.146;24.756;2023-03-15T09:37:16;98372.22;;;10.92;52.68
7178;BME280;3630;42.146;24.756;2023-03-15T09:39:46;98367.78;;;11.21;52.13
7178;BME280;3630;42.146;24.756;2023-03-15T09:42:17;98375.38;;;11.49;50.95
7178;BME280;3630;42.146;24.756;2023-03-15T09:44:54;98364.09;;;11.74;50.38
7178;BME280;3630;42.146;24.756;2023-03-15T09:47:32;98357.19;;;11.83;49.31
7178;BME280;3630;42.146;24.756;2023-03-15T09:50:05;98360.53;;;11.93;48.76
7178;BME280;3630;42.146;24.756;2023-03-15T09:52:37;98357.09;;;11.96;47.93
7178;BME280;3630;42.146;24.756;2023-03-15T09:55:13;98355.34;;;11.98;47.36
7178;BME280;3630;42.146;24.756;2023-03-15T09:57:46;98354.44;;;12.03;47.78
7178;BME280;3630;42.146;24.756;2023-03-15T10:00:18;98350.34;;;11.81;48.86
7178;BME280;3630;42.146;24.756;2023-03-15T10:02:54;98345.81;;;12.12;47.96
7178;BME280;3630;42.146;24.756;2023-03-15T10:05:31;98340.47;;;12.31;47.38
7178;BME280;3630;42.146;24.756;2023-03-15T10:07:58;98326.69;;;12.38;46.68
7178;BME280;3630;42.146;24.756;2023-03-15T10:10:31;98337.13;;;12.23;46.36
7178;BME280;3630;42.146;24.756;2023-03-15T10:13:09;98333.66;;;12.27;46.44
7178;BME280;3630;42.146;24.756;2023-03-15T10:16:01;98327.59;;;12.36;46.15
7178;BME280;3630;42.146;24.756;2023-03-15T10:18:41;98313.81;;;12.37;45.58
7178;BME280;3630;42.146;24.756;2023-03-15T10:21:16;98320.69;;;12.36;45.70
7178;BME280;3630;42.146;24.756;2023-03-15T10:23:50;98329.28;;;12.38;44.70
7178;BME280;3630;42.146;24.756;2023-03-15T10:26:24;98333.94;;;11.97;45.58
7178;BME280;3630;42.146;24.756;2023-03-15T10:28:53;98335.47;;;12.16;45.68
7178;BME280;3630;42.146;24.756;2023-03-15T10:31:24;98327.47;;;12.45;45.10
7178;BME280;3630;42.146;24.756;2023-03-15T10:33:52;98329.81;;;12.66;44.96
7178;BME280;3630;42.146;24.756;2023-03-15T10:36:22;98324.56;;;12.77;44.62
7178;BME280;3630;42.146;24.756;2023-03-15T10:38:49;98327.88;;;12.88;44.16
7178;BME280;3630;42.146;24.756;2023-03-15T10:41:28;98306.38;;;12.90;43.59
7178;BME280;3630;42.146;24.756;2023-03-15T10:43:58;98309.72;;;12.95;43.43
7178;BME280;3630;42.146;24.756;2023-03-15T10:46:26;98300.06;;;13.14;43.54
7178;BME280;3630;42.146;24.756;2023-03-15T10:48:56;98299.72;;;13.38;43.30
7178;BME280;3630;42.146;24.756;2023-03-15T10:51:25;98299.75;;;13.35;42.98
7178;BME280;3630;42.146;24.756;2023-03-15T10:53:55;98296.50;;;13.23;42.81
7178;BME280;3630;42.146;24.756;2023-03-15T10:56:24;98293.91;;;13.26;42.64
7178;BME280;3630;42.146;24.756;2023-03-15T10:58:54;98293.81;;;13.32;42.81
7178;BME280;3630;42.146;24.756;2023-03-15T11:01:24;98292.75;;;13.43;42.69
7178;BME280;3630;42.146;24.756;2023-03-15T11:04:11;98283.19;;;13.53;42.69
7178;BME280;3630;42.146;24.756;2023-03-15T11:06:42;98290.75;;;13.64;41.69
7178;BME280;3630;42.146;24.756;2023-03-15T11:09:11;98289.97;;;13.58;41.79
7178;BME280;3630;42.146;24.756;2023-03-15T11:12:00;98292.38;;;13.69;41.65
7178;BME280;3630;42.146;24.756;2023-03-15T11:14:34;98293.16;;;13.74;40.94
7178;BME280;3630;42.146;24.756;2023-03-15T11:17:03;98300.91;;;13.76;40.67
7178;BME280;3630;42.146;24.756;2023-03-15T11:19:31;98296.72;;;13.66;40.78
7178;BME280;3630;42.146;24.756;2023-03-15T11:22:01;98293.94;;;13.81;40.86
7178;BME280;3630;42.146;24.756;2023-03-15T11:24:29;98285.28;;;13.82;40.59
7178;BME280;3630;42.146;24.756;2023-03-15T11:26:59;98288.69;;;13.87;41.03
7178;BME280;3630;42.146;24.756;2023-03-15T11:29:28;98281.59;;;13.98;41.03
7178;BME280;3630;42.146;24.756;2023-03-15T11:31:58;98276.34;;;14.01;41.07
7178;BME280;3630;42.146;24.756;2023-03-15T11:34:43;98268.59;;;14.02;40.96
7178;BME280;3630;42.146;24.756;2023-03-15T11:37:15;98269.41;;;14.04;41.19
7178;BME280;3630;42.146;24.756;2023-03-15T11:39:46;98266.88;;;14.03;40.87
7178;BME280;3630;42.146;24.756;2023-03-15T11:42:21;98271.09;;;14.08;40.30
7178;BME280;3630;42.146;24.756;2023-03-15T11:44:52;98271.16;;;14.04;40.72
7178;BME280;3630;42.146;24.756;2023-03-15T11:47:29;98261.81;;;13.95;40.37
7178;BME280;3630;42.146;24.756;2023-03-15T11:50:00;98270.66;;;13.84;41.44
7178;BME280;3630;42.146;24.756;2023-03-15T11:52:28;98267.03;;;13.94;41.33
7178;BME280;3630;42.146;24.756;2023-03-15T11:54:56;98260.84;;;14.02;40.75
7178;BME280;3630;42.146;24.756;2023-03-15T11:57:39;98249.88;;;13.91;41.13
7178;BME280;3630;42.146;24.756;2023-03-15T12:00:25;98242.91;;;13.95;41.26
7178;BME280;3630;42.146;24.756;2023-03-15T12:03:34;98238.75;;;13.86;42.03
7178;BME280;3630;42.146;24.756;2023-03-15T12:06:07;98250.03;;;13.81;42.24
7178;BME280;3630;42.146;24.756;2023-03-15T12:08:45;98239.19;;;13.60;43.01
7178;BME280;3630;42.146;24.756;2023-03-15T12:11:36;98238.59;;;13.43;43.89
7178;BME280;3630;42.146;24.756;2023-03-15T12:14:05;98233.34;;;13.51;43.94
7178;BME280;3630;42.146;24.756;2023-03-15T12:16:40;98226.38;;;13.54;43.71
7178;BME280;3630;42.146;24.756;2023-03-15T12:19:13;98229.75;;;13.59;43.51
7178;BME280;3630;42.146;24.756;2023-03-15T12:21:44;98223.97;;;13.45;43.44
7178;BME280;3630;42.146;24.756;2023-03-15T12:24:15;98229.06;;;13.47;43.50
7178;BME280;3630;42.146;24.756;2023-03-15T12:26:47;98226.38;;;13.54;43.00
7178;BME280;3630;42.146;24.756;2023-03-15T12:29:21;98224.50;;;13.64;43.29
7178;BME280;3630;42.146;24.756;2023-03-15T12:31:54;98230.91;;;13.92;42.92
7178;BME280;3630;42.146;24.756;2023-03-15T12:34:29;98189.19;;;13.68;43.17
7178;BME280;3630;42.146;24.756;2023-03-15T12:37:04;98219.63;;;13.98;42.65
7178;BME280;3630;42.146;24.756;2023-03-15T12:39:41;98213.50;;;14.02;42.42
7178;BME280;3630;42.146;24.756;2023-03-15T12:45:46;98204.06;;;14.01;42.11
7178;BME280;3630;42.146;24.756;2023-03-15T12:48:19;98174.28;;;13.82;41.17
7178;BME280;3630;42.146;24.756;2023-03-15T12:50:54;98198.06;;;14.00;41.21
7178;BME280;3630;42.146;24.756;2023-03-15T12:53:26;98197.16;;;14.01;41.29
7178;BME280;3630;42.146;24.756;2023-03-15T12:55:55;98203.22;;;14.00;41.52
7178;BME280;3630;42.146;24.756;2023-03-15T12:58:26;98206.78;;;13.95;41.10
7178;BME280;3630;42.146;24.756;2023-03-15T13:00:58;98206.00;;;13.90;40.80
7178;BME280;3630;42.146;24.756;2023-03-15T13:03:27;98204.38;;;13.84;40.76
7178;BME280;3630;42.146;24.756;2023-03-15T13:05:59;98207.84;;;13.82;40.51
7178;BME280;3630;42.146;24.756;2023-03-15T13:08:34;98196.84;;;13.72;40.83
7178;BME280;3630;42.146;24.756;2023-03-15T13:11:12;98196.03;;;13.69;41.14
7178;BME280;3630;42.146;24.756;2023-03-15T13:14:03;98200.41;;;13.65;40.88
7178;BME280;3630;42.146;24.756;2023-03-15T13:16:38;98194.50;;;13.57;41.03
7178;BME280;3630;42.146;24.756;2023-03-15T13:19:16;98185.06;;;13.56;41.33
7178;BME280;3630;42.146;24.756;2023-03-15T13:22:12;98181.69;;;13.54;41.52
7178;BME280;3630;42.146;24.756;2023-03-15T13:24:50;98182.56;;;13.51;41.83
7178;BME280;3630;42.146;24.756;2023-03-15T13:27:33;98183.31;;;13.58;41.57
7178;BME280;3630;42.146;24.756;2023-03-15T13:30:25;98178.78;;;13.72;41.41
7178;BME280;3630;42.146;24.756;2023-03-15T13:33:03;98176.09;;;13.78;41.54
7178;BME280;3630;42.146;24.756;2023-03-15T13:35:32;98160.56;;;13.80;41.21